Time;durP1;ratioP1;P1;durP2;ratioP2;P2;SDS_P1;SDS_P2;PMS_P1;PMS_P2;Temp;Humidity;BMP_temperature;BMP_pressure;BME280_temperature;BME280_humidity;BME280_pressure;Samples;Min_cycle;Max_cycle;Signal;HPM_P1;HPM_P2
2022/06/02 00:01:53;;;;;;;3.53;3.22;;;;;;;15.10;56.83;100079.47;5029387;28;20033;-93
2022/06/02 00:04:31;;;;;;;5.57;3.08;;;;;;;14.96;57.04;100082.81;5030010;28;20214;-93
2022/06/02 00:07:11;;;;;;;3.33;3.03;;;;;;;14.83;57.41;100085.13;5028270;28;20196;-89
2022/06/02 00:09:45;;;;;;;3.15;2.90;;;;;;;14.75;58.02;100083.25;5052562;28;20028;-92
2022/06/02 00:12:15;;;;;;;3.40;3.10;;;;;;;14.80;57.56;100086.28;5040830;28;20040;-86
2022/06/02 00:14:52;;;;;;;3.35;3.05;;;;;;;14.69;57.71;100083.88;5050357;28;20115;-90
2022/06/02 00:17:48;;;;;;;2.78;2.50;;;;;;;14.76;57.47;100091.16;5053556;28;20095;-91
2022/06/02 00:20:20;;;;;;;3.55;3.05;;;;;;;14.83;57.71;100087.81;5038181;28;20032;-90
2022/06/02 00:23:03;;;;;;;3.60;3.30;;;;;;;14.89;57.34;100089.84;5039521;28;20048;-92
2022/06/02 00:25:29;;;;;;;4.97;3.50;;;;;;;14.89;57.08;100088.00;5068306;28;20136;-92
2022/06/02 00:28:05;;;;;;;4.10;3.35;;;;;;;14.88;57.58;100091.72;5049743;28;20113;-87
2022/06/02 00:30:54;;;;;;;3.50;3.20;;;;;;;14.90;57.30;100092.38;5053732;28;20505;-92
2022/06/02 00:33:25;;;;;;;3.63;3.33;;;;;;;14.80;57.72;100097.91;5060027;28;20028;-92
2022/06/02 00:35:56;;;;;;;4.13;3.42;;;;;;;14.79;57.64;100098.91;5043252;28;20025;-91
2022/06/02 00:38:39;;;;;;;4.68;3.67;;;;;;;14.78;57.92;100086.47;5049271;28;20201;-88
2022/06/02 00:41:07;;;;;;;3.30;3.00;;;;;;;14.66;58.24;100098.53;5039985;28;20028;-88
2022/06/02 00:43:49;;;;;;;3.88;3.40;;;;;;;14.58;58.07;100095.75;5048006;28;20138;-93
2022/06/02 00:46:30;;;;;;;3.58;3.28;;;;;;;14.56;58.42;100096.91;5064662;28;20029;-88
2022/06/02 00:49:14;;;;;;;3.95;3.20;;;;;;;14.52;58.35;100103.63;5054937;28;20067;-89
2022/06/02 00:51:40;;;;;;;3.63;3.05;;;;;;;14.48;58.38;100106.63;5032289;28;20082;-91
2022/06/02 00:57:30;;;;;;;3.85;3.13;;;;;;;14.57;58.41;100107.53;5045769;28;20039;-91
2022/06/02 01:00:08;;;;;;;3.75;3.40;;;;;;;14.63;58.34;100109.56;5038322;28;20028;-85
2022/06/02 01:02:45;;;;;;;3.60;3.20;;;;;;;14.57;58.09;100112.91;5069237;28;20486;-87
2022/06/02 01:05:12;;;;;;;4.47;3.53;;;;;;;14.55;58.71;100108.69;5049748;28;20540;-91
2022/06/02 01:08:00;;;;;;;3.47;3.17;;;;;;;14.54;58.46;100113.22;5036597;28;20028;-91
2022/06/02 01:10:53;;;;;;;3.60;3.20;;;;;;;14.54;58.39;100121.31;5037896;28;20033;-91
2022/06/02 01:13:39;;;;;;;3.85;3.55;;;;;;;14.47;58.55;100117.56;5065994;28;20078;-88
2022/06/02 01:16:10;;;;;;;4.03;3.67;;;;;;;14.45;58.33;100116.88;5047226;28;20044;-92
2022/06/02 01:18:55;;;;;;;3.75;3.45;;;;;;;14.46;58.46;100113.19;5066706;28;20028;-87
2022/06/02 01:21:46;;;;;;;3.97;3.28;;;;;;;14.43;58.72;100116.19;5072569;28;20068;-90
2022/06/02 01:24:24;;;;;;;4.28;3.63;;;;;;;14.41;58.64;100113.63;5074343;28;20029;-92
2022/06/02 01:27:26;;;;;;;3.72;3.42;;;;;;;14.39;58.82;100120.19;5027560;28;20284;-91
2022/06/02 01:30:23;;;;;;;4.57;4.18;;;;;;;14.30;58.97;100126.50;5079209;28;20028;-91
2022/06/02 01:32:54;;;;;;;4.00;3.70;;;;;;;14.29;59.03;100128.34;5069969;28;20037;-93
2022/06/02 01:35:36;;;;;;;4.15;3.75;;;;;;;14.26;59.15;100125.13;5028966;28;20024;-92
2022/06/02 01:38:26;;;;;;;4.22;3.70;;;;;;;14.29;58.95;100125.66;5056676;28;20028;-92
2022/06/02 01:41:00;;;;;;;4.05;3.65;;;;;;;14.24;58.72;100130.69;5054008;28;20036;-85
2022/06/02 01:43:39;;;;;;;4.22;3.92;;;;;;;14.17;58.96;100125.06;5030658;28;20041;-92
2022/06/02 01:46:30;;;;;;;4.60;4.18;;;;;;;14.13;58.79;100128.22;5046491;28;20131;-91
2022/06/02 01:49:25;;;;;;;5.13;4.10;;;;;;;14.10;59.32;100121.31;5060423;28;20471;-93
2022/06/02 01:51:59;;;;;;;4.63;4.22;;;;;;;14.07;59.33;100124.31;5059279;28;20048;-89
2022/06/02 01:54:51;;;;;;;4.88;4.47;;;;;;;14.04;59.60;100126.47;5023925;28;20118;-90
2022/06/02 01:57:30;;;;;;;4.57;4.07;;;;;;;14.05;59.40;100125.47;5030393;28;20161;-88
2022/06/02 02:00:06;;;;;;;4.70;4.30;;;;;;;14.03;59.61;100131.00;5053501;28;20033;-88
2022/06/02 02:02:43;;;;;;;4.88;4.38;;;;;;;14.08;59.63;100125.16;5034156;28;20119;-89
2022/06/02 02:05:27;;;;;;;4.88;4.47;;;;;;;14.10;59.81;100134.75;5046686;28;20123;-89
2022/06/02 02:08:11;;;;;;;5.20;4.13;;;;;;;14.09;59.84;100127.69;5031072;28;20039;-92
2022/06/02 02:10:55;;;;;;;4.38;4.03;;;;;;;14.03;59.07;100131.00;5061921;28;20032;-87
2022/06/02 02:13:26;;;;;;;4.78;4.38;;;;;;;13.94;58.84;100128.41;5051428;28;20450;-87
2022/06/02 02:16:21;;;;;;;4.85;4.25;;;;;;;13.89;59.25;100130.72;5048845;28;20318;-90
2022/06/02 02:18:49;;;;;;;5.20;4.70;;;;;;;13.90;59.25;100118.97;5058910;28;20047;-93
2022/06/02 02:21:24;;;;;;;5.30;4.28;;;;;;;13.89;59.75;100128.03;5050506;28;20059;-91
2022/06/02 02:23:49;;;;;;;5.05;4.55;;;;;;;13.97;59.26;100130.78;5046408;28;20029;-91
2022/06/02 02:26:19;;;;;;;5.20;4.70;;;;;;;13.93;59.84;100132.09;5046539;28;20037;-91
2022/06/02 02:29:11;;;;;;;5.32;4.72;;;;;;;13.93;59.58;100129.41;5028614;28;20028;-92
2022/06/02 02:31:58;;;;;;;5.30;4.80;;;;;;;13.99;59.52;100128.78;5028094;28;20659;-89
2022/06/02 02:34:31;;;;;;;5.03;4.20;;;;;;;13.94;59.33;100123.03;5044861;28;20045;-93
2022/06/02 02:37:19;;;;;;;4.97;4.57;;;;;;;13.92;59.58;100133.09;5036881;28;20718;-92
2022/06/02 02:39:51;;;;;;;5.15;4.75;;;;;;;13.89;59.76;100130.72;5027852;28;20039;-90
2022/06/02 02:42:32;;;;;;;5.65;4.97;;;;;;;13.88;59.59;100139.78;5015296;28;20071;-87
2022/06/02 02:45:28;;;;;;;5.32;4.93;;;;;;;13.81;59.24;100132.34;5022905;28;20479;-92
2022/06/02 02:47:59;;;;;;;5.53;5.05;;;;;;;13.83;59.98;100140.25;5038844;28;20032;-91
2022/06/02 02:50:37;;;;;;;5.80;5.28;;;;;;;13.89;59.33;100139.63;5028722;28;20032;-90
2022/06/02 02:53:09;;;;;;;5.82;5.28;;;;;;;13.80;60.23;100137.88;5066978;28;20039;-86
2022/06/02 02:55:43;;;;;;;5.45;4.95;;;;;;;13.77;59.80;100135.47;5056427;28;20474;-92
2022/06/02 02:58:24;;;;;;;5.22;4.80;;;;;;;13.70;60.14;100137.06;5029796;28;20051;-92
2022/06/02 03:01:01;;;;;;;5.82;5.32;;;;;;;13.66;60.00;100149.97;5031687;28;20023;-91
2022/06/02 03:03:51;;;;;;;6.10;5.50;;;;;;;13.62;60.22;100151.28;5029034;28;20064;-91
2022/06/02 03:06:17;;;;;;;5.68;5.18;;;;;;;13.63;60.42;100160.19;5038753;28;20040;-92
2022/06/02 03:08:47;;;;;;;6.97;5.53;;;;;;;13.62;60.63;100153.13;5032292;28;20055;-93
2022/06/02 03:11:34;;;;;;;6.25;5.65;;;;;;;13.57;60.73;100148.19;5034942;28;20024;-93
2022/06/02 03:14:36;;;;;;;5.85;5.35;;;;;;;13.55;60.27;100148.34;5056156;28;20032;-88
2022/06/02 03:17:02;;;;;;;5.95;5.18;;;;;;;13.48;59.90;100155.34;5023777;28;20040;-84
2022/06/02 03:19:46;;;;;;;5.43;4.97;;;;;;;13.49;60.06;100148.97;5058495;28;20024;-87
2022/06/02 03:22:22;;;;;;;7.10;5.53;;;;;;;13.44;60.74;100153.09;5038894;28;20044;-91
2022/06/02 03:25:17;;;;;;;6.10;5.47;;;;;;;13.44;60.05;100147.72;5043754;28;20490;-91
2022/06/02 03:27:53;;;;;;;6.18;5.57;;;;;;;13.42;60.31;100147.03;5066864;28;20455;-93
2022/06/02 03:30:22;;;;;;;5.85;5.10;;;;;;;13.46;60.00;100143.91;5039567;28;20052;-91
2022/06/02 03:33:10;;;;;;;5.82;5.22;;;;;;;13.13;60.59;100161.44;5024822;28;20036;-90
2022/06/02 03:35:40;;;;;;;5.75;5.25;;;;;;;13.29;61.10;100155.47;5030583;28;20175;-89
2022/06/02 03:38:25;;;;;;;6.05;5.45;;;;;;;13.35;60.33;100168.28;5056790;28;20024;-86
2022/06/02 03:41:22;;;;;;;5.78;5.20;;;;;;;13.41;60.44;100169.53;5079243;28;20056;-90
2022/06/02 03:44:00;;;;;;;6.75;4.85;;;;;;;13.40;60.19;100171.38;5068227;28;20032;-91
2022/06/02 03:46:41;;;;;;;5.85;5.22;;;;;;;13.35;60.13;100165.59;5030011;28;20110;-92
2022/06/02 03:49:25;;;;;;;5.03;4.57;;;;;;;13.43;60.14;100165.69;5048906;28;20131;-91
2022/06/02 03:52:09;;;;;;;5.60;5.10;;;;;;;13.35;59.60;100183.56;5054933;28;20029;-93
2022/06/02 03:54:47;;;;;;;5.43;5.00;;;;;;;13.35;59.70;100165.59;5051870;28;20040;-92
2022/06/02 03:57:37;;;;;;;5.20;4.63;;;;;;;13.36;59.61;100174.50;5025515;28;20052;-88
2022/06/02 04:00:22;;;;;;;5.43;4.88;;;;;;;13.35;59.56;100173.66;5073261;28;20095;-90
2022/06/02 04:03:14;;;;;;;5.55;4.93;;;;;;;13.29;59.89;100184.16;5049454;28;20438;-91
2022/06/02 04:05:43;;;;;;;5.80;5.25;;;;;;;13.19;59.91;100190.41;5025545;28;20041;-93
2022/06/02 04:08:39;;;;;;;5.38;4.95;;;;;;;13.22;60.65;100191.94;5054172;28;20040;-91
2022/06/02 04:11:18;;;;;;;5.18;4.68;;;;;;;13.24;60.51;100189.97;5058495;28;20970;-89
2022/06/02 04:13:59;;;;;;;5.50;5.00;;;;;;;13.28;60.38;100191.38;5048524;28;20032;-89
2022/06/02 04:16:43;;;;;;;4.82;4.43;;;;;;;13.31;60.49;100203.66;5049338;28;20033;-93
2022/06/02 04:22:28;;;;;;;4.68;4.13;;;;;;;13.30;60.75;100204.66;5051198;28;20599;-93
2022/06/02 04:25:19;;;;;;;5.32;4.82;;;;;;;13.29;60.46;100205.66;5044949;28;20081;-91
2022/06/02 04:27:57;;;;;;;6.32;4.40;;;;;;;13.26;60.73;100204.13;5018815;28;20041;-93
2022/06/02 04:30:41;;;;;;;6.03;4.97;;;;;;;13.27;61.10;100197.75;5048804;28;20485;-88
2022/06/02 04:33:12;;;;;;;6.32;5.07;;;;;;;13.27;61.24;100202.28;5024020;28;20579;-93
2022/06/02 04:35:43;;;;;;;5.30;4.80;;;;;;;13.27;61.40;100202.28;5036092;28;20080;-93
2022/06/02 04:38:31;;;;;;;5.57;4.95;;;;;;;13.34;61.03;100195.31;5048567;28;20035;-85
2022/06/02 04:41:02;;;;;;;5.38;4.88;;;;;;;13.09;62.05;100199.47;5036929;28;20039;-90
2022/06/02 04:43:36;;;;;;;5.47;4.97;;;;;;;12.97;62.52;100195.28;5023746;28;20033;-94
2022/06/02 04:46:07;;;;;;;5.97;5.40;;;;;;;13.05;62.38;100192.72;5031560;28;20296;-88
2022/06/02 04:48:55;;;;;;;7.10;5.60;;;;;;;13.12;62.42;100191.13;5040786;28;20430;-92
2022/06/02 04:51:34;;;;;;;5.18;4.78;;;;;;;13.25;62.59;100189.00;5031711;28;20423;-93
2022/06/02 04:54:02;;;;;;;;;;;;;;;13.23;62.78;100190.94;5040754;28;20032;-90
2022/06/02 04:56:49;;;;;;;5.57;5.07;;;;;;;13.30;62.34;100193.91;5070999;28;19951;-94
2022/06/02 04:59:25;;;;;;;5.60;5.05;;;;;;;13.32;62.63;100192.78;5045212;28;20037;-93
2022/06/02 05:02:33;;;;;;;8.32;5.75;;;;;;;13.35;62.89;100195.16;5036841;28;20032;-91
2022/06/02 05:05:02;;;;;;;6.37;5.73;;;;;;;13.39;62.92;100191.16;5037046;28;20037;-90
2022/06/02 05:08:04;;;;;;;6.63;5.32;;;;;;;13.39;63.16;100195.69;5028610;28;20117;-93
2022/06/02 05:10:57;;;;;;;5.63;4.90;;;;;;;13.40;63.55;100194.69;5052677;28;20366;-92
2022/06/02 05:13:46;;;;;;;6.38;5.38;;;;;;;13.41;63.55;100196.38;5048138;28;20032;-89
2022/06/02 05:16:21;;;;;;;6.30;5.70;;;;;;;13.43;64.07;100191.72;5018813;28;20127;-86
2022/06/02 05:19:04;;;;;;;6.30;5.72;;;;;;;13.47;63.56;100191.25;5049593;28;20390;-91
2022/06/02 05:21:46;;;;;;;6.25;5.65;;;;;;;13.52;63.64;100194.34;5047718;28;20334;-93
2022/06/02 05:24:24;;;;;;;7.13;5.90;;;;;;;13.53;63.92;100197.88;5026706;28;20386;-91
2022/06/02 05:27:20;;;;;;;7.57;6.53;;;;;;;13.55;63.73;100198.56;5025842;28;20037;-92
2022/06/02 05:30:23;;;;;;;9.13;8.23;;;;;;;13.50;64.06;100198.19;5036489;28;20036;-75
2022/06/02 05:33:20;;;;;;;10.68;8.20;;;;;;;13.56;65.02;100208.31;5047184;28;20052;-90
2022/06/02 05:36:04;;;;;;;9.10;8.20;;;;;;;13.59;64.93;100213.38;5047404;28;20121;-88
2022/06/02 05:38:54;;;;;;;8.73;7.82;;;;;;;13.64;65.80;100218.31;5044262;28;20111;-87
2022/06/02 05:41:31;;;;;;;7.57;6.72;;;;;;;13.69;65.39;100224.06;5053677;28;20032;-89
2022/06/02 05:44:17;;;;;;;9.00;7.38;;;;;;;13.69;65.83;100218.69;5043285;28;20044;-84
2022/06/02 05:47:06;;;;;;;8.68;7.80;;;;;;;13.67;65.89;100224.22;5052063;28;20090;-88
2022/06/02 05:49:47;;;;;;;9.35;8.45;;;;;;;13.66;66.43;100227.06;5046091;28;20028;-86
2022/06/02 05:52:34;;;;;;;9.70;8.80;;;;;;;13.64;66.19;100229.06;5036218;28;20067;-88
2022/06/02 05:55:31;;;;;;;9.90;8.90;;;;;;;13.66;66.88;100229.75;5035557;28;20074;-88
2022/06/02 05:58:23;;;;;;;9.77;8.77;;;;;;;13.71;66.86;100238.19;5066445;28;20037;-88
2022/06/02 06:01:11;;;;;;;9.82;8.82;;;;;;;13.67;66.57;100236.81;5022105;28;20025;-88
2022/06/02 06:03:43;;;;;;;9.95;8.50;;;;;;;13.70;66.98;100239.19;5052322;28;20569;-88
2022/06/02 06:06:30;;;;;;;10.63;9.52;;;;;;;13.67;67.07;100243.03;5044862;28;20033;-87
2022/06/02 06:09:09;;;;;;;9.75;8.85;;;;;;;13.69;66.93;100242.88;5053726;28;20135;-86
2022/06/02 06:12:09;;;;;;;10.98;9.88;;;;;;;13.70;67.15;100248.09;5070585;28;20021;-89
2022/06/02 06:14:43;;;;;;;10.90;9.30;;;;;;;13.71;66.82;100249.81;5054418;28;20028;-89
2022/06/02 06:17:26;;;;;;;9.32;8.43;;;;;;;13.73;67.56;100241.63;5061380;28;20025;-89
2022/06/02 06:20:27;;;;;;;9.60;8.70;;;;;;;13.74;66.70;100248.69;5036483;28;20094;-88
2022/06/02 06:23:13;;;;;;;8.70;7.80;;;;;;;13.77;66.84;100248.38;5007738;28;20076;-88
2022/06/02 06:26:12;;;;;;;12.25;7.38;;;;;;;13.87;66.40;100257.22;5004436;28;20038;-88
2022/06/02 06:28:50;;;;;;;8.80;7.28;;;;;;;13.86;66.42;100264.44;5037137;28;20053;-88
2022/06/02 06:31:24;;;;;;;6.45;5.57;;;;;;;13.84;66.84;100263.75;5033913;28;20057;-89
2022/06/02 06:33:56;;;;;;;6.47;5.88;;;;;;;13.88;66.18;100256.22;5032101;28;20041;-87
2022/06/02 06:36:33;;;;;;;7.07;6.18;;;;;;;13.85;66.76;100269.97;5026504;28;20201;-89
2022/06/02 06:39:30;;;;;;;6.75;5.85;;;;;;;13.89;66.52;100279.44;5023912;28;20028;-86
2022/06/02 06:42:17;;;;;;;5.72;5.22;;;;;;;13.94;66.75;100270.91;5050338;28;20621;-88
2022/06/02 06:45:21;;;;;;;5.55;5.05;;;;;;;13.94;66.32;100271.75;5040564;28;20061;-87
2022/06/02 06:47:53;;;;;;;6.78;5.10;;;;;;;13.96;65.99;100268.91;5029877;28;20060;-88
2022/06/02 06:50:23;;;;;;;5.63;4.63;;;;;;;13.95;66.10;100270.75;5008880;28;20029;-86
2022/06/02 06:53:26;;;;;;;5.63;4.95;;;;;;;13.97;66.19;100273.28;5031931;28;20021;-87
2022/06/02 06:55:56;;;;;;;5.53;4.78;;;;;;;14.01;65.57;100269.28;5030219;28;20055;-86
2022/06/02 06:58:27;;;;;;;6.10;5.18;;;;;;;13.99;65.57;100265.91;5036766;28;20056;-88
2022/06/02 07:01:03;;;;;;;5.78;4.43;;;;;;;13.99;65.62;100266.75;5029218;28;20644;-87
2022/06/02 07:03:37;;;;;;;5.38;4.78;;;;;;;14.02;65.79;100266.44;5019605;28;20024;-87
2022/06/02 07:06:10;;;;;;;6.25;5.00;;;;;;;13.98;65.67;100267.75;5057275;28;20033;-87
2022/06/02 07:08:50;;;;;;;6.25;5.32;;;;;;;13.86;65.68;100255.53;5026286;28;20026;-87
2022/06/02 07:14:17;;;;;;;7.20;6.50;;;;;;;13.89;65.45;100260.59;5037718;28;20560;-87
2022/06/02 07:16:49;;;;;;;7.05;6.30;;;;;;;13.97;65.57;100262.53;5009919;28;20033;-87
2022/06/02 07:19:38;;;;;;;6.85;6.25;;;;;;;14.06;65.86;100261.63;5015840;28;20022;-87
2022/06/02 07:22:08;;;;;;;7.00;6.30;;;;;;;14.05;65.74;100263.47;5023819;28;20055;-87
2022/06/02 07:25:04;;;;;;;7.60;6.78;;;;;;;14.13;65.67;100262.69;5036087;28;20032;-87
2022/06/02 07:27:51;;;;;;;8.15;6.95;;;;;;;14.09;65.50;100259.47;5050449;28;20124;-87
2022/06/02 07:30:28;;;;;;;7.55;6.47;;;;;;;14.08;65.59;100259.63;5034537;28;20119;-87
2022/06/02 07:33:31;;;;;;;7.47;6.78;;;;;;;14.08;65.49;100241.63;5023603;28;20116;-88
2022/06/02 07:36:34;;;;;;;7.15;6.32;;;;;;;14.09;65.67;100240.63;5002717;28;20554;-88
2022/06/02 07:39:18;;;;;;;6.78;6.18;;;;;;;14.09;65.41;100254.09;5053461;28;20534;-87
2022/06/02 07:41:56;;;;;;;6.45;5.85;;;;;;;14.01;65.34;100253.16;5034974;28;20021;-87
2022/06/02 07:44:43;;;;;;;8.23;5.70;;;;;;;14.13;65.31;100254.63;5025229;28;20067;-88
2022/06/02 07:47:26;;;;;;;5.13;4.63;;;;;;;14.22;65.31;100251.03;5020423;28;20291;-87
2022/06/02 07:50:10;;;;;;;5.93;4.90;;;;;;;14.22;64.44;100250.19;5043424;28;20068;-88
2022/06/02 07:53:09;;;;;;;5.68;5.13;;;;;;;14.24;64.64;100251.72;5042183;28;20375;-87
2022/06/02 07:55:54;;;;;;;6.25;5.60;;;;;;;14.08;64.33;100259.63;5024291;28;20087;-88
2022/06/02 07:58:48;;;;;;;6.75;6.05;;;;;;;14.07;64.73;100260.63;5024681;28;20057;-88
2022/06/02 08:01:16;;;;;;;7.10;5.93;;;;;;;14.03;63.92;100251.16;5022069;28;20045;-87
2022/06/02 08:03:59;;;;;;;7.50;6.30;;;;;;;14.04;64.12;100251.00;5030449;28;20025;-89
2022/06/02 08:06:59;;;;;;;5.47;4.95;;;;;;;14.12;63.72;100259.16;5038165;28;20041;-89
2022/06/02 08:09:47;;;;;;;5.55;4.40;;;;;;;14.29;63.66;100254.78;5054588;28;20036;-87
2022/06/02 08:12:33;;;;;;;5.47;4.95;;;;;;;14.36;63.68;100255.88;5034931;28;21039;-89
2022/06/02 08:15:28;;;;;;;5.63;5.13;;;;;;;14.34;62.88;100262.41;5043541;28;20037;-88
2022/06/02 08:18:02;;;;;;;4.93;4.45;;;;;;;14.36;62.48;100263.94;5023204;28;20033;-87
2022/06/02 08:20:49;;;;;;;4.28;3.95;;;;;;;14.45;62.46;100270.25;5035506;28;20025;-87
2022/06/02 08:23:23;;;;;;;5.25;4.75;;;;;;;14.54;62.48;100281.94;5030926;28;20041;-88
2022/06/02 08:25:57;;;;;;;5.13;4.63;;;;;;;14.52;62.56;100281.25;5033479;28;20033;-88
2022/06/02 08:28:55;;;;;;;6.45;5.60;;;;;;;14.47;62.46;100281.72;5045955;28;20034;-86
2022/06/02 08:31:48;;;;;;;5.53;5.03;;;;;;;14.44;62.39;100292.78;5030375;28;20102;-86
2022/06/02 08:34:18;;;;;;;4.78;4.30;;;;;;;14.49;62.49;100290.47;5033975;28;20017;-89
2022/06/02 08:36:58;;;;;;;6.05;4.90;;;;;;;14.48;62.15;100294.19;5033808;28;20040;-88
2022/06/02 08:39:38;;;;;;;4.55;4.15;;;;;;;14.52;62.17;100297.41;5025429;28;20036;-88
2022/06/02 08:42:46;;;;;;;4.90;4.40;;;;;;;14.58;62.10;100288.69;5027300;28;20029;-88
2022/06/02 08:45:30;;;;;;;5.53;4.03;;;;;;;14.59;60.95;100288.53;5025646;28;20033;-87
2022/06/02 08:48:14;;;;;;;4.40;3.13;;;;;;;14.54;59.38;100288.16;5023993;28;20044;-89
2022/06/02 08:50:51;;;;;;;3.50;3.20;;;;;;;14.56;60.34;100282.63;5006378;28;20037;-87
2022/06/02 08:53:35;;;;;;;7.53;4.80;;;;;;;14.63;59.90;100281.84;5003611;28;20483;-85
2022/06/02 08:56:43;;;;;;;3.80;3.50;;;;;;;14.63;60.96;100286.38;5023581;28;20037;-85
2022/06/02 08:59:24;;;;;;;5.43;4.28;;;;;;;14.65;60.96;100292.47;5019917;28;20029;-89
2022/06/02 09:02:19;;;;;;;5.55;3.97;;;;;;;14.68;61.14;100292.19;5042857;28;20889;-86
2022/06/02 09:04:57;;;;;;;6.05;4.38;;;;;;;14.67;60.90;100290.50;5007968;28;20067;-86
2022/06/02 09:07:35;;;;;;;5.38;4.35;;;;;;;14.66;60.71;100289.66;5039535;28;20036;-85
2022/06/02 09:10:22;;;;;;;6.00;4.40;;;;;;;14.69;60.13;100283.09;5023507;28;20029;-87
2022/06/02 09:13:35;;;;;;;3.30;3.00;;;;;;;14.77;60.44;100288.53;5042345;28;20505;-88
2022/06/02 09:16:19;;;;;;;2.55;2.08;;;;;;;14.87;59.03;100288.44;4986066;28;20049;-90
2022/06/02 09:19:31;;;;;;;2.53;2.33;;;;;;;14.87;58.48;100285.75;5026172;28;20041;-88
2022/06/02 09:22:14;;;;;;;2.10;1.85;;;;;;;14.93;58.00;100288.66;5039095;28;20041;-87
2022/06/02 09:25:07;;;;;;;3.05;2.13;;;;;;;15.02;57.78;100281.47;5041249;28;20029;-88
2022/06/02 09:27:53;;;;;;;5.05;3.58;;;;;;;14.99;57.11;100288.03;5039841;28;20033;-86
2022/06/02 09:30:46;;;;;;;2.85;2.40;;;;;;;15.09;58.27;100279.84;5004791;28;20484;-87
2022/06/02 09:33:37;;;;;;;2.60;2.28;;;;;;;15.07;58.32;100280.00;5038253;28;20029;-86
2022/06/02 09:36:33;;;;;;;5.18;3.15;;;;;;;15.12;57.74;100280.34;5044609;28;20029;-87
2022/06/02 09:39:11;;;;;;;5.43;3.65;;;;;;;15.02;57.11;100278.78;5040254;28;20033;-87
2022/06/02 09:41:52;;;;;;;3.58;3.10;;;;;;;15.03;57.71;100272.38;5023853;28;20033;-88
2022/06/02 09:44:43;;;;;;;4.75;3.40;;;;;;;15.00;57.63;100276.25;5001917;28;20029;-87
2022/06/02 09:47:23;;;;;;;3.80;3.40;;;;;;;15.01;58.12;100274.41;5040279;28;20075;-88
2022/06/02 09:50:10;;;;;;;3.55;3.00;;;;;;;15.06;58.44;100270.22;5036765;28;20614;-89
2022/06/02 09:52:59;;;;;;;4.78;3.15;;;;;;;15.01;56.61;100275.25;5039617;28;20448;-86
2022/06/02 09:55:31;;;;;;;4.55;2.88;;;;;;;15.03;57.15;100270.53;5025475;28;20032;-86
2022/06/02 09:58:18;;;;;;;4.97;3.15;;;;;;;15.11;57.13;100277.81;5041932;28;20025;-87
2022/06/02 10:00:50;;;;;;;5.10;3.30;;;;;;;15.11;56.76;100280.50;5040860;28;20483;-87
2022/06/02 10:03:45;;;;;;;4.40;3.20;;;;;;;15.09;55.65;100272.59;5030227;28;20048;-87
2022/06/02 10:06:27;;;;;;;5.22;2.85;;;;;;;15.04;55.46;100279.47;5012368;28;20032;-87
2022/06/02 10:09:21;;;;;;;4.13;2.75;;;;;;;15.02;55.94;100273.38;5029814;28;20034;-88
2022/06/02 10:11:54;;;;;;;6.07;3.25;;;;;;;15.10;56.78;100270.75;5027119;28;20072;-87
2022/06/02 10:14:25;;;;;;;4.00;3.05;;;;;;;15.10;56.19;100268.91;5026145;28;20632;-86
2022/06/02 10:17:09;;;;;;;3.28;2.50;;;;;;;15.09;56.59;100260.97;5006523;28;20036;-86
2022/06/02 10:19:50;;;;;;;4.50;3.15;;;;;;;15.17;56.62;100257.50;5022447;28;20031;-87
2022/06/02 10:22:28;;;;;;;4.57;2.58;;;;;;;15.20;56.63;100255.34;5032574;28;20247;-87
2022/06/02 10:25:29;;;;;;;4.50;2.40;;;;;;;15.31;55.57;100260.44;5014357;28;20021;-85
2022/06/02 10:28:17;;;;;;;3.92;2.30;;;;;;;15.27;55.09;100253.69;5037546;28;20025;-85
2022/06/02 10:31:09;;;;;;;2.67;2.20;;;;;;;15.33;55.75;100253.03;5047906;28;20021;-87
2022/06/02 10:33:53;;;;;;;3.83;2.70;;;;;;;15.38;54.05;100258.78;5045523;28;20383;-87
2022/06/02 10:36:43;;;;;;;3.95;2.28;;;;;;;15.32;52.97;100254.06;5031213;28;20052;-84
2022/06/02 10:39:22;;;;;;;2.25;1.77;;;;;;;15.30;53.96;100255.22;5047964;28;20033;-86
2022/06/02 10:42:06;;;;;;;1.80;1.70;;;;;;;15.43;55.03;100263.69;5007414;28;20055;-85
2022/06/02 10:44:47;;;;;;;1.83;1.73;;;;;;;15.49;55.46;100260.34;5039838;28;20111;-88
2022/06/02 10:47:31;;;;;;;3.10;2.80;;;;;;;15.53;54.99;100255.47;5030659;28;20472;-88
2022/06/02 10:50:30;;;;;;;2.72;2.53;;;;;;;15.56;55.17;100252.47;5048240;28;20029;-86
2022/06/02 10:53:30;;;;;;;5.50;2.70;;;;;;;15.54;55.10;100249.09;5046092;28;20036;-88
2022/06/02 10:56:08;;;;;;;2.95;2.50;;;;;;;15.57;55.26;100256.84;5046124;28;20467;-88
2022/06/02 10:58:54;;;;;;;3.30;2.42;;;;;;;15.58;55.15;100251.31;5048091;28;20032;-87
2022/06/02 11:01:57;;;;;;;2.63;2.20;;;;;;;15.64;55.89;100258.78;5048955;28;20558;-87
2022/06/02 11:04:59;;;;;;;2.25;1.80;;;;;;;15.72;56.20;100248.03;5031242;28;20037;-88
2022/06/02 11:07:43;;;;;;;2.38;1.80;;;;;;;15.75;55.63;100241.44;5029736;28;20028;-83
2022/06/02 11:10:27;;;;;;;3.58;2.20;;;;;;;15.80;56.23;100247.19;5046494;28;20029;-88
2022/06/02 11:13:14;;;;;;;2.42;1.80;;;;;;;15.86;56.20;100253.78;5048321;28;20537;-89
2022/06/02 11:16:09;;;;;;;2.88;2.08;;;;;;;15.86;55.30;100243.00;5031896;28;20040;-89
2022/06/02 11:19:04;;;;;;;2.58;1.90;;;;;;;15.89;55.46;100246.22;5014301;28;20062;-89
2022/06/02 11:21:32;;;;;;;3.33;2.60;;;;;;;15.87;53.35;100242.84;5054626;28;20520;-88
2022/06/02 11:24:13;;;;;;;6.00;2.40;;;;;;;15.85;53.39;100227.81;5052367;28;20110;-89
2022/06/02 11:27:15;;;;;;;2.47;2.25;;;;;;;15.89;53.34;100221.09;5044623;28;20029;-89
2022/06/02 11:29:57;;;;;;;3.08;2.42;;;;;;;15.89;53.69;100229.19;5042997;28;20462;-90
2022/06/02 11:32:51;;;;;;;3.38;2.58;;;;;;;15.92;54.25;100235.09;5047015;28;20466;-74
2022/06/02 11:35:43;;;;;;;3.88;2.50;;;;;;;16.00;53.86;100231.56;5059998;28;20043;-75
2022/06/02 11:38:54;;;;;;;4.80;2.85;;;;;;;16.00;53.37;100227.00;5037618;28;20032;-74
2022/06/02 11:41:26;;;;;;;3.25;2.60;;;;;;;16.02;54.10;100224.97;5066559;28;20033;-75
2022/06/02 11:44:08;;;;;;;5.72;2.83;;;;;;;16.04;52.83;100212.16;5068621;28;20036;-74
2022/06/02 11:47:07;;;;;;;3.97;3.10;;;;;;;16.06;53.26;100212.00;5052629;28;20115;-76
2022/06/02 11:50:00;;;;;;;4.30;2.92;;;;;;;16.17;52.14;100210.84;5063882;28;20036;-75
2022/06/02 11:52:40;;;;;;;5.93;2.92;;;;;;;16.21;52.54;100206.81;5068563;28;20033;-76
2022/06/02 11:55:18;;;;;;;5.68;2.67;;;;;;;16.22;52.91;100200.41;5065362;28;20033;-75
2022/06/02 11:57:57;;;;;;;3.77;2.00;;;;;;;16.26;52.87;100199.06;5063402;28;20028;-75
2022/06/02 12:00:45;;;;;;;4.05;2.70;;;;;;;16.30;53.30;100186.91;5050878;28;20024;-74
2022/06/02 12:03:29;;;;;;;3.55;2.20;;;;;;;16.36;54.14;100180.81;5066745;28;20083;-75
2022/06/02 12:06:16;;;;;;;5.30;2.78;;;;;;;16.46;53.52;100184.19;5053957;28;20067;-76
2022/06/02 12:09:12;;;;;;;6.53;2.72;;;;;;;16.62;51.88;100183.34;5065141;28;20029;-77
2022/06/02 12:11:49;;;;;;;3.08;2.67;;;;;;;16.68;51.74;100172.72;5026227;28;20040;-78
2022/06/02 12:14:34;;;;;;;2.17;1.98;;;;;;;16.63;50.77;100176.94;5044169;28;20425;-75
2022/06/02 12:17:18;;;;;;;2.00;1.83;;;;;;;16.63;51.33;100175.06;5043634;28;20064;-78
2022/06/02 12:20:27;;;;;;;3.25;2.58;;;;;;;16.69;51.19;100165.47;5045357;28;20563;-77
2022/06/02 12:23:04;;;;;;;7.03;3.20;;;;;;;16.76;49.97;100162.91;5067115;28;20135;-76
2022/06/02 12:26:01;;;;;;;2.75;2.03;;;;;;;16.72;50.65;100162.44;5059361;28;20644;-77
2022/06/02 12:28:37;;;;;;;3.67;2.55;;;;;;;16.83;48.59;100158.50;5048567;28;20032;-76
2022/06/02 12:31:24;;;;;;;3.65;2.08;;;;;;;16.75;49.67;100156.69;5053355;28;20134;-76
2022/06/02 12:33:55;;;;;;;2.65;2.05;;;;;;;16.84;49.77;100161.03;5066485;28;20098;-77
2022/06/02 12:36:42;;;;;;;3.17;2.65;;;;;;;16.84;50.19;100162.91;5067165;28;20033;-76
2022/06/02 12:39:26;;;;;;;6.47;2.50;;;;;;;16.89;49.52;100165.91;5064196;28;20047;-75
2022/06/02 12:42:16;;;;;;;4.15;2.60;;;;;;;17.02;50.18;100162.66;5062235;28;20040;-78
2022/06/02 12:44:53;;;;;;;2.58;1.98;;;;;;;17.03;50.51;100154.41;5065180;28;20036;-73
2022/06/02 12:47:56;;;;;;;4.18;2.55;;;;;;;17.02;48.91;100151.84;5065337;28;20056;-78
2022/06/02 12:50:27;;;;;;;3.53;2.85;;;;;;;17.07;49.67;100168.41;5058836;28;20032;-77